Mariscal Lamar Airport
SECU : rendu visible

Aérodrome :











RETROUVEZ-NOUS SUR...

 
LOGIN :

S'inscrire | Disclaimer

   EN    FR    IT 

 









Légende :    VFR   VFR Marginal   IFR   IFR Intensif   IFR Très Intensif
Visi : 
Plafond : 
>= 8 km
>= 3000ft
5 à 8 km
1000 à 3000 ft
1500m à 5 km
500 à 1000 ft
800 à 1500m
200 à 500 ft
< 800m
< 200 ft
Symboles :   Orages  Brouillard  Fortes neiges  Fortes précipitations  Vent > 20 kt






- Altitude de l'aérodrome : 8306 ft
- Code IATA : CUE


SECU - Mariscal Lamar

DERNIER METAR :
  • 252200Z 22007KT 8000 -RA FEW023 OVC033 15/14 Q1024 RE TSRA

METARs EXPIRÉS :
  • 252100Z 21005KT 9999 4000S -TSRA FEW023CB BKN030 13/13 Q1024
  • 252027Z 32007KT 0500 +TSRA FEW023CB OVC030 13/12 Q1024
  • 252000Z 22009KT 9999 TSRA FEW030CB BKN040 18/15 Q1023

Prévision TAF périmée.



MET'MAP, la Météo Aéronautique d'un coup d'oeil ! - Copyright ORBIFLY Décembre 2007 - Disclaimer

ORBIFLY MET'MAP TEAM :

Programmation & Développement : Alexandra Zaïnal
Sur une idée originale de : Baudouin d'Aumeries
Assistance à la programmation : Marc-Olivier Méhu
Soutien technique & logistique : Manuel Goepfert

Contact : metmap@orbifly.com




SOURCES & CREDITS :

   NOAA       Earth
Advisory